sensor_id;sensor_type;location;lat;lon;timestamp;temperature;humidity
81202;DHT22;71068;47.662;-2.750;2023-09-12T00:00:22;21.80;74.10
81202;DHT22;71068;47.662;-2.750;2023-09-12T00:02:49;21.90;74.50
81202;DHT22;71068;47.662;-2.750;2023-09-12T00:05:16;21.70;74.70
81202;DHT22;71068;47.662;-2.750;2023-09-12T00:07:43;21.70;74.90
81202;DHT22;71068;47.662;-2.750;2023-09-12T00:10:09;21.70;74.30
81202;DHT22;71068;47.662;-2.750;2023-09-12T00:12:35;21.70;74.70
81202;DHT22;71068;47.662;-2.750;2023-09-12T00:15:01;21.70;74.30
81202;DHT22;71068;47.662;-2.750;2023-09-12T00:17:29;21.60;74.80
81202;DHT22;71068;47.662;-2.750;2023-09-12T00:19:55;21.60;74.40
81202;DHT22;71068;47.662;-2.750;2023-09-12T00:22:21;21.70;73.70
81202;DHT22;71068;47.662;-2.750;2023-09-12T00:24:47;21.70;73.50
81202;DHT22;71068;47.662;-2.750;2023-09-12T00:27:13;21.80;73.30
81202;DHT22;71068;47.662;-2.750;2023-09-12T00:29:39;21.80;73.40
81202;DHT22;71068;47.662;-2.750;2023-09-12T00:32:06;21.80;73.40
81202;DHT22;71068;47.662;-2.750;2023-09-12T00:34:31;21.90;73.20
81202;DHT22;71068;47.662;-2.750;2023-09-12T00:36:57;21.80;72.90
81202;DHT22;71068;47.662;-2.750;2023-09-12T00:39:23;21.90;72.80
81202;DHT22;71068;47.662;-2.750;2023-09-12T00:41:49;22.00;73.30
81202;DHT22;71068;47.662;-2.750;2023-09-12T00:44:17;22.00;73.70
81202;DHT22;71068;47.662;-2.750;2023-09-12T00:46:46;21.90;73.50
81202;DHT22;71068;47.662;-2.750;2023-09-12T00:49:14;21.90;73.60
81202;DHT22;71068;47.662;-2.750;2023-09-12T00:51:44;21.90;73.80
81202;DHT22;71068;47.662;-2.750;2023-09-12T00:54:12;21.90;74.00
81202;DHT22;71068;47.662;-2.750;2023-09-12T00:56:38;21.90;73.30
81202;DHT22;71068;47.662;-2.750;2023-09-12T00:59:05;22.00;73.70
81202;DHT22;71068;47.662;-2.750;2023-09-12T01:01:34;21.90;73.10
81202;DHT22;71068;47.662;-2.750;2023-09-12T01:04:01;21.90;73.00
81202;DHT22;71068;47.662;-2.750;2023-09-12T01:06:29;22.00;73.50
81202;DHT22;71068;47.662;-2.750;2023-09-12T01:08:56;22.00;73.40
81202;DHT22;71068;47.662;-2.750;2023-09-12T01:11:22;21.90;73.70
81202;DHT22;71068;47.662;-2.750;2023-09-12T01:13:49;22.00;73.70
81202;DHT22;71068;47.662;-2.750;2023-09-12T01:16:15;22.00;73.10
81202;DHT22;71068;47.662;-2.750;2023-09-12T01:18:41;22.00;72.70
81202;DHT22;71068;47.662;-2.750;2023-09-12T01:21:36;22.00;72.80
81202;DHT22;71068;47.662;-2.750;2023-09-12T01:29:56;21.70;72.80
81202;DHT22;71068;47.662;-2.750;2023-09-12T01:32:23;21.70;73.20
81202;DHT22;71068;47.662;-2.750;2023-09-12T01:34:49;21.50;72.80
81202;DHT22;71068;47.662;-2.750;2023-09-12T01:37:15;21.60;73.10
81202;DHT22;71068;47.662;-2.750;2023-09-12T01:39:43;21.50;72.90
81202;DHT22;71068;47.662;-2.750;2023-09-12T01:42:13;21.50;73.90
81202;DHT22;71068;47.662;-2.750;2023-09-12T01:44:43;21.50;73.80
81202;DHT22;71068;47.662;-2.750;2023-09-12T01:47:10;21.40;73.00
81202;DHT22;71068;47.662;-2.750;2023-09-12T01:49:39;21.50;73.00
81202;DHT22;71068;47.662;-2.750;2023-09-12T01:52:09;21.50;73.10
81202;DHT22;71068;47.662;-2.750;2023-09-12T01:54:37;21.40;72.90
81202;DHT22;71068;47.662;-2.750;2023-09-12T01:57:04;21.30;73.20
81202;DHT22;71068;47.662;-2.750;2023-09-12T01:59:31;21.30;73.00
81202;DHT22;71068;47.662;-2.750;2023-09-12T02:01:58;21.40;72.80
81202;DHT22;71068;47.662;-2.750;2023-09-12T02:04:24;21.20;72.90
81202;DHT22;71068;47.662;-2.750;2023-09-12T02:06:50;21.20;73.80
81202;DHT22;71068;47.662;-2.750;2023-09-12T02:09:16;21.20;73.20
81202;DHT22;71068;47.662;-2.750;2023-09-12T02:11:43;21.30;73.30
81202;DHT22;71068;47.662;-2.750;2023-09-12T02:14:09;21.20;74.10
81202;DHT22;71068;47.662;-2.750;2023-09-12T02:16:37;21.20;73.60
81202;DHT22;71068;47.662;-2.750;2023-09-12T02:19:05;21.20;73.80
81202;DHT22;71068;47.662;-2.750;2023-09-12T02:21:33;21.20;74.20
81202;DHT22;71068;47.662;-2.750;2023-09-12T02:23:59;21.20;73.70
81202;DHT22;71068;47.662;-2.750;2023-09-12T02:26:25;21.20;73.40
81202;DHT22;71068;47.662;-2.750;2023-09-12T02:28:51;21.10;73.80
81202;DHT22;71068;47.662;-2.750;2023-09-12T02:31:17;21.10;74.90
81202;DHT22;71068;47.662;-2.750;2023-09-12T02:33:43;21.10;74.80
81202;DHT22;71068;47.662;-2.750;2023-09-12T02:36:10;21.00;74.00
81202;DHT22;71068;47.662;-2.750;2023-09-12T02:38:36;21.10;74.00
81202;DHT22;71068;47.662;-2.750;2023-09-12T02:41:01;21.10;73.70
81202;DHT22;71068;47.662;-2.750;2023-09-12T02:43:28;21.10;73.80
81202;DHT22;71068;47.662;-2.750;2023-09-12T02:45:55;21.20;74.00
81202;DHT22;71068;47.662;-2.750;2023-09-12T02:48:21;21.20;74.00
81202;DHT22;71068;47.662;-2.750;2023-09-12T02:50:47;21.20;74.20
81202;DHT22;71068;47.662;-2.750;2023-09-12T02:53:13;21.10;74.00
81202;DHT22;71068;47.662;-2.750;2023-09-12T02:55:40;21.10;74.10
81202;DHT22;71068;47.662;-2.750;2023-09-12T02:58:07;21.10;74.20
81202;DHT22;71068;47.662;-2.750;2023-09-12T03:00:38;21.20;74.30
81202;DHT22;71068;47.662;-2.750;2023-09-12T03:03:07;21.10;74.40
81202;DHT22;71068;47.662;-2.750;2023-09-12T03:05:35;21.00;74.70
81202;DHT22;71068;47.662;-2.750;2023-09-12T03:08:02;21.00;75.10
81202;DHT22;71068;47.662;-2.750;2023-09-12T03:10:30;20.90;74.70
81202;DHT22;71068;47.662;-2.750;2023-09-12T03:12:56;20.90;74.80
81202;DHT22;71068;47.662;-2.750;2023-09-12T03:15:23;20.90;74.50
81202;DHT22;71068;47.662;-2.750;2023-09-12T03:17:49;21.00;74.50
81202;DHT22;71068;47.662;-2.750;2023-09-12T03:20:15;21.10;74.30
81202;DHT22;71068;47.662;-2.750;2023-09-12T03:22:42;21.00;74.10
81202;DHT22;71068;47.662;-2.750;2023-09-12T03:25:08;21.10;73.70
81202;DHT22;71068;47.662;-2.750;2023-09-12T03:27:34;21.20;73.60
81202;DHT22;71068;47.662;-2.750;2023-09-12T03:30:00;21.10;73.60
81202;DHT22;71068;47.662;-2.750;2023-09-12T03:32:26;21.20;74.00
81202;DHT22;71068;47.662;-2.750;2023-09-12T03:34:52;21.20;73.90
81202;DHT22;71068;47.662;-2.750;2023-09-12T03:37:18;21.20;74.00
81202;DHT22;71068;47.662;-2.750;2023-09-12T03:39:44;21.20;74.30
81202;DHT22;71068;47.662;-2.750;2023-09-12T03:42:09;21.20;73.80
81202;DHT22;71068;47.662;-2.750;2023-09-12T03:44:35;21.20;74.80
81202;DHT22;71068;47.662;-2.750;2023-09-12T03:47:01;21.10;74.60
81202;DHT22;71068;47.662;-2.750;2023-09-12T03:49:29;21.10;74.20
81202;DHT22;71068;47.662;-2.750;2023-09-12T03:51:55;21.10;74.00
81202;DHT22;71068;47.662;-2.750;2023-09-12T03:54:22;21.10;74.60
81202;DHT22;71068;47.662;-2.750;2023-09-12T03:56:48;21.10;74.30
81202;DHT22;71068;47.662;-2.750;2023-09-12T03:59:14;21.00;74.10
81202;DHT22;71068;47.662;-2.750;2023-09-12T04:01:43;21.00;73.90
81202;DHT22;71068;47.662;-2.750;2023-09-12T04:04:09;21.10;74.00
81202;DHT22;71068;47.662;-2.750;2023-09-12T04:06:35;21.20;73.90
81202;DHT22;71068;47.662;-2.750;2023-09-12T04:09:01;21.00;74.90
81202;DHT22;71068;47.662;-2.750;2023-09-12T04:11:26;20.90;74.80
81202;DHT22;71068;47.662;-2.750;2023-09-12T04:13:52;20.90;74.70
81202;DHT22;71068;47.662;-2.750;2023-09-12T04:16:19;20.80;74.60
81202;DHT22;71068;47.662;-2.750;2023-09-12T04:18:46;20.90;74.30
81202;DHT22;71068;47.662;-2.750;2023-09-12T04:21:13;21.00;74.40
81202;DHT22;71068;47.662;-2.750;2023-09-12T04:23:39;20.90;74.30
81202;DHT22;71068;47.662;-2.750;2023-09-12T04:26:06;21.00;74.20
81202;DHT22;71068;47.662;-2.750;2023-09-12T04:28:35;21.00;74.20
81202;DHT22;71068;47.662;-2.750;2023-09-12T04:31:03;21.10;74.00
81202;DHT22;71068;47.662;-2.750;2023-09-12T04:33:29;21.10;74.40
81202;DHT22;71068;47.662;-2.750;2023-09-12T04:36:00;21.00;74.20
81202;DHT22;71068;47.662;-2.750;2023-09-12T04:38:26;21.00;74.30
81202;DHT22;71068;47.662;-2.750;2023-09-12T04:41:03;21.00;74.50
81202;DHT22;71068;47.662;-2.750;2023-09-12T04:43:32;20.90;75.10
81202;DHT22;71068;47.662;-2.750;2023-09-12T04:45:58;20.90;75.20
81202;DHT22;71068;47.662;-2.750;2023-09-12T04:48:26;20.90;75.10
81202;DHT22;71068;47.662;-2.750;2023-09-12T04:50:52;21.00;74.90
81202;DHT22;71068;47.662;-2.750;2023-09-12T04:53:18;21.00;74.60
81202;DHT22;71068;47.662;-2.750;2023-09-12T04:55:44;21.00;74.80
81202;DHT22;71068;47.662;-2.750;2023-09-12T04:58:12;21.10;74.40
81202;DHT22;71068;47.662;-2.750;2023-09-12T05:00:39;21.10;74.40
81202;DHT22;71068;47.662;-2.750;2023-09-12T05:03:06;21.10;74.50
81202;DHT22;71068;47.662;-2.750;2023-09-12T05:05:34;21.10;75.00
81202;DHT22;71068;47.662;-2.750;2023-09-12T05:08:03;20.90;75.40
81202;DHT22;71068;47.662;-2.750;2023-09-12T05:10:30;21.00;75.20
81202;DHT22;71068;47.662;-2.750;2023-09-12T05:12:56;21.00;74.80
81202;DHT22;71068;47.662;-2.750;2023-09-12T05:15:23;21.00;74.50
81202;DHT22;71068;47.662;-2.750;2023-09-12T05:17:49;21.00;74.90
81202;DHT22;71068;47.662;-2.750;2023-09-12T05:20:15;21.00;75.20
81202;DHT22;71068;47.662;-2.750;2023-09-12T05:22:41;21.00;74.90
81202;DHT22;71068;47.662;-2.750;2023-09-12T05:25:09;21.00;75.30
81202;DHT22;71068;47.662;-2.750;2023-09-12T05:27:36;21.00;75.30
81202;DHT22;71068;47.662;-2.750;2023-09-12T05:30:03;20.80;74.90
81202;DHT22;71068;47.662;-2.750;2023-09-12T05:32:29;20.90;75.20
81202;DHT22;71068;47.662;-2.750;2023-09-12T05:34:56;20.90;74.70
81202;DHT22;71068;47.662;-2.750;2023-09-12T05:37:22;21.00;74.90
81202;DHT22;71068;47.662;-2.750;2023-09-12T05:39:50;21.00;74.60
81202;DHT22;71068;47.662;-2.750;2023-09-12T05:42:16;21.00;74.50
81202;DHT22;71068;47.662;-2.750;2023-09-12T05:44:48;21.10;74.30
81202;DHT22;71068;47.662;-2.750;2023-09-12T05:47:15;21.20;74.20
81202;DHT22;71068;47.662;-2.750;2023-09-12T05:49:41;21.20;74.70
81202;DHT22;71068;47.662;-2.750;2023-09-12T05:52:07;21.20;74.90
81202;DHT22;71068;47.662;-2.750;2023-09-12T05:54:33;21.10;74.80
81202;DHT22;71068;47.662;-2.750;2023-09-12T05:57:01;21.20;74.70
81202;DHT22;71068;47.662;-2.750;2023-09-12T05:59:27;21.10;74.70
81202;DHT22;71068;47.662;-2.750;2023-09-12T06:01:54;21.20;74.30
81202;DHT22;71068;47.662;-2.750;2023-09-12T06:04:21;21.20;74.30
81202;DHT22;71068;47.662;-2.750;2023-09-12T06:06:47;21.30;74.40
81202;DHT22;71068;47.662;-2.750;2023-09-12T06:09:13;21.30;74.00
81202;DHT22;71068;47.662;-2.750;2023-09-12T06:11:45;21.20;74.10
81202;DHT22;71068;47.662;-2.750;2023-09-12T06:14:10;21.20;74.30
81202;DHT22;71068;47.662;-2.750;2023-09-12T06:16:36;21.20;74.40
81202;DHT22;71068;47.662;-2.750;2023-09-12T06:19:02;21.30;74.50
81202;DHT22;71068;47.662;-2.750;2023-09-12T06:21:28;21.30;74.50
81202;DHT22;71068;47.662;-2.750;2023-09-12T06:24:11;21.20;74.40
81202;DHT22;71068;47.662;-2.750;2023-09-12T06:26:39;21.20;74.40
81202;DHT22;71068;47.662;-2.750;2023-09-12T06:29:05;21.30;74.50
81202;DHT22;71068;47.662;-2.750;2023-09-12T06:31:33;21.30;74.50
81202;DHT22;71068;47.662;-2.750;2023-09-12T06:34:00;21.20;74.30
81202;DHT22;71068;47.662;-2.750;2023-09-12T06:36:27;21.30;74.10
81202;DHT22;71068;47.662;-2.750;2023-09-12T06:38:58;21.30;74.10
81202;DHT22;71068;47.662;-2.750;2023-09-12T06:41:26;21.30;74.00
81202;DHT22;71068;47.662;-2.750;2023-09-12T06:43:56;21.40;74.20
81202;DHT22;71068;47.662;-2.750;2023-09-12T06:46:24;21.30;74.00
81202;DHT22;71068;47.662;-2.750;2023-09-12T06:48:54;21.30;74.10
81202;DHT22;71068;47.662;-2.750;2023-09-12T06:51:24;21.30;74.50
81202;DHT22;71068;47.662;-2.750;2023-09-12T06:53:55;21.20;75.00
81202;DHT22;71068;47.662;-2.750;2023-09-12T06:56:23;21.10;74.70
81202;DHT22;71068;47.662;-2.750;2023-09-12T06:58:49;21.20;74.50
81202;DHT22;71068;47.662;-2.750;2023-09-12T07:01:15;21.20;74.40
81202;DHT22;71068;47.662;-2.750;2023-09-12T07:03:41;21.20;74.50
81202;DHT22;71068;47.662;-2.750;2023-09-12T07:06:07;21.20;74.40
81202;DHT22;71068;47.662;-2.750;2023-09-12T07:08:33;21.30;74.50
81202;DHT22;71068;47.662;-2.750;2023-09-12T07:11:01;21.30;74.20
81202;DHT22;71068;47.662;-2.750;2023-09-12T07:13:32;21.30;74.00
81202;DHT22;71068;47.662;-2.750;2023-09-12T07:15:59;21.40;74.30
81202;DHT22;71068;47.662;-2.750;2023-09-12T07:22:13;21.50;74.20
81202;DHT22;71068;47.662;-2.750;2023-09-12T07:24:43;21.50;73.90
81202;DHT22;71068;47.662;-2.750;2023-09-12T07:30:34;21.70;73.90
81202;DHT22;71068;47.662;-2.750;2023-09-12T07:33:15;21.70;74.30
81202;DHT22;71068;47.662;-2.750;2023-09-12T07:35:51;21.70;74.30
81202;DHT22;71068;47.662;-2.750;2023-09-12T07:38:27;21.70;74.40
81202;DHT22;71068;47.662;-2.750;2023-09-12T07:41:01;21.70;74.40
81202;DHT22;71068;47.662;-2.750;2023-09-12T07:43:34;21.80;74.60
81202;DHT22;71068;47.662;-2.750;2023-09-12T07:46:00;21.70;74.50
81202;DHT22;71068;47.662;-2.750;2023-09-12T07:48:27;21.90;74.10
81202;DHT22;71068;47.662;-2.750;2023-09-12T07:50:55;21.90;74.20
81202;DHT22;71068;47.662;-2.750;2023-09-12T07:53:21;22.00;74.60
81202;DHT22;71068;47.662;-2.750;2023-09-12T07:55:48;22.00;74.70
81202;DHT22;71068;47.662;-2.750;2023-09-12T07:58:19;22.00;74.40
81202;DHT22;71068;47.662;-2.750;2023-09-12T08:00:46;22.20;74.00
81202;DHT22;71068;47.662;-2.750;2023-09-12T08:03:13;22.30;74.00
81202;DHT22;71068;47.662;-2.750;2023-09-12T08:05:56;22.30;74.30
81202;DHT22;71068;47.662;-2.750;2023-09-12T08:08:23;22.40;73.90
81202;DHT22;71068;47.662;-2.750;2023-09-12T08:10:52;22.50;73.50
81202;DHT22;71068;47.662;-2.750;2023-09-12T08:13:20;22.60;73.20
81202;DHT22;71068;47.662;-2.750;2023-09-12T08:15:53;22.70;73.10
81202;DHT22;71068;47.662;-2.750;2023-09-12T08:18:20;22.70;72.90
81202;DHT22;71068;47.662;-2.750;2023-09-12T08:20:47;22.90;72.40
81202;DHT22;71068;47.662;-2.750;2023-09-12T08:23:13;22.90;72.00
81202;DHT22;71068;47.662;-2.750;2023-09-12T08:25:41;23.00;72.20
81202;DHT22;71068;47.662;-2.750;2023-09-12T08:28:07;23.20;71.30
81202;DHT22;71068;47.662;-2.750;2023-09-12T08:30:33;23.20;71.70
81202;DHT22;71068;47.662;-2.750;2023-09-12T08:32:58;23.30;71.30
81202;DHT22;71068;47.662;-2.750;2023-09-12T08:35:24;23.60;70.80
81202;DHT22;71068;47.662;-2.750;2023-09-12T08:37:53;23.70;69.70
81202;DHT22;71068;47.662;-2.750;2023-09-12T08:40:19;23.70;69.70
81202;DHT22;71068;47.662;-2.750;2023-09-12T08:42:49;23.80;69.80
81202;DHT22;71068;47.662;-2.750;2023-09-12T08:45:19;24.10;67.70
81202;DHT22;71068;47.662;-2.750;2023-09-12T08:47:49;24.00;69.30
81202;DHT22;71068;47.662;-2.750;2023-09-12T08:50:16;24.30;69.00
81202;DHT22;71068;47.662;-2.750;2023-09-12T08:52:45;24.50;69.10
81202;DHT22;71068;47.662;-2.750;2023-09-12T08:55:14;24.80;68.40
81202;DHT22;71068;47.662;-2.750;2023-09-12T08:57:46;25.00;68.00
81202;DHT22;71068;47.662;-2.750;2023-09-12T09:00:14;25.10;66.20
81202;DHT22;71068;47.662;-2.750;2023-09-12T09:02:41;24.90;65.10
81202;DHT22;71068;47.662;-2.750;2023-09-12T09:05:10;24.90;66.00
81202;DHT22;71068;47.662;-2.750;2023-09-12T09:07:41;24.80;65.90
81202;DHT22;71068;47.662;-2.750;2023-09-12T09:10:17;24.70;66.30
81202;DHT22;71068;47.662;-2.750;2023-09-12T09:12:45;24.90;66.30
81202;DHT22;71068;47.662;-2.750;2023-09-12T09:15:28;25.30;66.00
81202;DHT22;71068;47.662;-2.750;2023-09-12T09:17:56;25.70;64.20
81202;DHT22;71068;47.662;-2.750;2023-09-12T09:20:33;26.00;65.10
81202;DHT22;71068;47.662;-2.750;2023-09-12T09:23:08;26.10;64.10
81202;DHT22;71068;47.662;-2.750;2023-09-12T09:25:36;26.00;61.90
81202;DHT22;71068;47.662;-2.750;2023-09-12T09:28:19;25.90;63.60
81202;DHT22;71068;47.662;-2.750;2023-09-12T09:30:51;25.80;63.60
81202;DHT22;71068;47.662;-2.750;2023-09-12T09:33:20;25.80;62.20
81202;DHT22;71068;47.662;-2.750;2023-09-12T09:35:47;25.80;63.90
81202;DHT22;71068;47.662;-2.750;2023-09-12T09:38:14;25.70;62.80
81202;DHT22;71068;47.662;-2.750;2023-09-12T09:40:43;25.40;64.80
81202;DHT22;71068;47.662;-2.750;2023-09-12T09:43:12;25.40;64.90
81202;DHT22;71068;47.662;-2.750;2023-09-12T09:45:45;25.40;64.90
81202;DHT22;71068;47.662;-2.750;2023-09-12T09:48:24;25.40;64.50
81202;DHT22;71068;47.662;-2.750;2023-09-12T09:51:00;25.60;64.50
81202;DHT22;71068;47.662;-2.750;2023-09-12T09:53:28;25.40;65.70
81202;DHT22;71068;47.662;-2.750;2023-09-12T09:56:14;25.70;65.60
81202;DHT22;71068;47.662;-2.750;2023-09-12T09:58:55;25.80;64.50
81202;DHT22;71068;47.662;-2.750;2023-09-12T10:01:23;25.80;63.70
81202;DHT22;71068;47.662;-2.750;2023-09-12T10:03:57;25.90;64.80
81202;DHT22;71068;47.662;-2.750;2023-09-12T10:06:29;26.00;63.90
81202;DHT22;71068;47.662;-2.750;2023-09-12T10:08:58;26.10;63.30
81202;DHT22;71068;47.662;-2.750;2023-09-12T10:11:28;25.80;64.10
81202;DHT22;71068;47.662;-2.750;2023-09-12T10:13:57;25.80;64.00
81202;DHT22;71068;47.662;-2.750;2023-09-12T10:16:36;25.60;63.80
81202;DHT22;71068;47.662;-2.750;2023-09-12T10:22:09;26.00;64.90
81202;DHT22;71068;47.662;-2.750;2023-09-12T10:24:46;26.40;64.10
81202;DHT22;71068;47.662;-2.750;2023-09-12T10:27:18;26.50;59.80
81202;DHT22;71068;47.662;-2.750;2023-09-12T10:29:48;26.70;62.30
81202;DHT22;71068;47.662;-2.750;2023-09-12T10:32:17;27.10;58.50
81202;DHT22;71068;47.662;-2.750;2023-09-12T10:34:46;27.10;61.10
81202;DHT22;71068;47.662;-2.750;2023-09-12T10:37:15;27.70;58.60
81202;DHT22;71068;47.662;-2.750;2023-09-12T10:39:43;28.00;60.20
81202;DHT22;71068;47.662;-2.750;2023-09-12T10:42:10;28.20;58.60
81202;DHT22;71068;47.662;-2.750;2023-09-12T10:44:39;28.50;54.00
81202;DHT22;71068;47.662;-2.750;2023-09-12T10:47:05;28.70;57.90
81202;DHT22;71068;47.662;-2.750;2023-09-12T10:49:32;28.90;57.80
81202;DHT22;71068;47.662;-2.750;2023-09-12T10:51:58;29.20;57.30
81202;DHT22;71068;47.662;-2.750;2023-09-12T10:54:26;29.50;57.70
81202;DHT22;71068;47.662;-2.750;2023-09-12T10:57:08;29.50;53.50
81202;DHT22;71068;47.662;-2.750;2023-09-12T11:02:36;30.00;55.00
81202;DHT22;71068;47.662;-2.750;2023-09-12T11:08:00;30.80;53.90
81202;DHT22;71068;47.662;-2.750;2023-09-12T11:10:28;30.80;52.90
81202;DHT22;71068;47.662;-2.750;2023-09-12T11:12:57;31.00;52.80
81202;DHT22;71068;47.662;-2.750;2023-09-12T11:15:26;31.30;52.30
81202;DHT22;71068;47.662;-2.750;2023-09-12T11:18:10;31.50;47.70
81202;DHT22;71068;47.662;-2.750;2023-09-12T11:21:14;31.30;43.40
81202;DHT22;71068;47.662;-2.750;2023-09-12T11:23:40;31.20;50.80
81202;DHT22;71068;47.662;-2.750;2023-09-12T11:26:07;30.90;49.00
81202;DHT22;71068;47.662;-2.750;2023-09-12T11:28:36;31.00;50.20
81202;DHT22;71068;47.662;-2.750;2023-09-12T11:31:02;31.40;50.50
81202;DHT22;71068;47.662;-2.750;2023-09-12T11:33:29;30.70;40.70
81202;DHT22;71068;47.662;-2.750;2023-09-12T11:35:58;30.20;45.80
81202;DHT22;71068;47.662;-2.750;2023-09-12T11:38:29;29.60;48.00
81202;DHT22;71068;47.662;-2.750;2023-09-12T11:40:57;29.50;48.70
81202;DHT22;71068;47.662;-2.750;2023-09-12T11:43:26;29.90;49.60
81202;DHT22;71068;47.662;-2.750;2023-09-12T11:45:54;30.50;48.70
81202;DHT22;71068;47.662;-2.750;2023-09-12T11:48:21;30.70;48.40
81202;DHT22;71068;47.662;-2.750;2023-09-12T11:51:16;30.90;44.30
81202;DHT22;71068;47.662;-2.750;2023-09-12T11:53:42;30.90;47.50
81202;DHT22;71068;47.662;-2.750;2023-09-12T11:56:08;30.90;47.40
81202;DHT22;71068;47.662;-2.750;2023-09-12T11:58:35;31.00;44.10
81202;DHT22;71068;47.662;-2.750;2023-09-12T12:01:02;30.60;46.10
81202;DHT22;71068;47.662;-2.750;2023-09-12T12:03:29;31.00;47.70
81202;DHT22;71068;47.662;-2.750;2023-09-12T12:05:56;31.20;46.50
81202;DHT22;71068;47.662;-2.750;2023-09-12T12:08:25;31.10;46.50
81202;DHT22;71068;47.662;-2.750;2023-09-12T12:10:53;31.10;46.20
81202;DHT22;71068;47.662;-2.750;2023-09-12T12:13:20;31.00;46.70
81202;DHT22;71068;47.662;-2.750;2023-09-12T12:15:47;31.00;47.00
81202;DHT22;71068;47.662;-2.750;2023-09-12T12:18:14;31.00;47.10
81202;DHT22;71068;47.662;-2.750;2023-09-12T12:20:40;30.60;43.80
81202;DHT22;71068;47.662;-2.750;2023-09-12T12:23:07;30.30;47.40
81202;DHT22;71068;47.662;-2.750;2023-09-12T12:25:35;30.10;46.90
81202;DHT22;71068;47.662;-2.750;2023-09-12T12:28:02;30.00;47.70
81202;DHT22;71068;47.662;-2.750;2023-09-12T12:30:33;30.00;47.50
81202;DHT22;71068;47.662;-2.750;2023-09-12T12:33:06;29.60;44.90
81202;DHT22;71068;47.662;-2.750;2023-09-12T12:35:33;29.40;47.50
81202;DHT22;71068;47.662;-2.750;2023-09-12T12:37:59;29.20;47.30
81202;DHT22;71068;47.662;-2.750;2023-09-12T12:40:26;29.00;47.70
81202;DHT22;71068;47.662;-2.750;2023-09-12T12:42:53;28.70;47.40
81202;DHT22;71068;47.662;-2.750;2023-09-12T12:45:21;28.50;48.30
81202;DHT22;71068;47.662;-2.750;2023-09-12T12:48:07;28.80;47.80
81202;DHT22;71068;47.662;-2.750;2023-09-12T12:50:36;29.30;46.80
81202;DHT22;71068;47.662;-2.750;2023-09-12T12:53:03;29.40;47.00
81202;DHT22;71068;47.662;-2.750;2023-09-12T12:55:31;29.80;43.80
81202;DHT22;71068;47.662;-2.750;2023-09-12T12:58:01;30.30;44.70
81202;DHT22;71068;47.662;-2.750;2023-09-12T13:00:29;30.80;45.50
81202;DHT22;71068;47.662;-2.750;2023-09-12T13:02:55;30.40;44.60
81202;DHT22;71068;47.662;-2.750;2023-09-12T13:05:26;30.30;45.50
81202;DHT22;71068;47.662;-2.750;2023-09-12T13:07:54;30.30;45.70
81202;DHT22;71068;47.662;-2.750;2023-09-12T13:10:21;30.20;46.60
81202;DHT22;71068;47.662;-2.750;2023-09-12T13:12:51;30.50;44.90
81202;DHT22;71068;47.662;-2.750;2023-09-12T13:15:17;31.00;46.70
81202;DHT22;71068;47.662;-2.750;2023-09-12T13:17:47;31.50;45.80
81202;DHT22;71068;47.662;-2.750;2023-09-12T13:20:15;31.60;44.80
81202;DHT22;71068;47.662;-2.750;2023-09-12T13:22:41;31.50;45.50
81202;DHT22;71068;47.662;-2.750;2023-09-12T13:25:10;31.50;44.40
81202;DHT22;71068;47.662;-2.750;2023-09-12T13:27:38;31.40;44.00
81202;DHT22;71068;47.662;-2.750;2023-09-12T13:30:05;31.10;45.00
81202;DHT22;71068;47.662;-2.750;2023-09-12T13:32:32;31.10;45.30
81202;DHT22;71068;47.662;-2.750;2023-09-12T13:34:59;31.50;45.20
81202;DHT22;71068;47.662;-2.750;2023-09-12T13:37:25;31.40;42.30
81202;DHT22;71068;47.662;-2.750;2023-09-12T13:39:54;31.30;44.70
81202;DHT22;71068;47.662;-2.750;2023-09-12T13:42:20;30.90;44.80
81202;DHT22;71068;47.662;-2.750;2023-09-12T13:44:53;30.40;45.50
81202;DHT22;71068;47.662;-2.750;2023-09-12T13:47:20;30.20;45.90
81202;DHT22;71068;47.662;-2.750;2023-09-12T13:49:50;29.90;46.50
81202;DHT22;71068;47.662;-2.750;2023-09-12T13:52:21;29.70;46.90
81202;DHT22;71068;47.662;-2.750;2023-09-12T13:54:47;29.80;47.60
81202;DHT22;71068;47.662;-2.750;2023-09-12T13:57:13;30.10;47.60
81202;DHT22;71068;47.662;-2.750;2023-09-12T13:59:39;30.20;47.60
81202;DHT22;71068;47.662;-2.750;2023-09-12T14:02:05;30.80;47.70
81202;DHT22;71068;47.662;-2.750;2023-09-12T14:04:33;31.30;46.30
81202;DHT22;71068;47.662;-2.750;2023-09-12T14:06:59;31.30;45.10
81202;DHT22;71068;47.662;-2.750;2023-09-12T14:09:25;31.30;45.40
81202;DHT22;71068;47.662;-2.750;2023-09-12T14:12:10;31.50;45.30
81202;DHT22;71068;47.662;-2.750;2023-09-12T14:14:36;31.60;45.40
81202;DHT22;71068;47.662;-2.750;2023-09-12T14:17:04;31.70;45.90
81202;DHT22;71068;47.662;-2.750;2023-09-12T14:19:31;31.60;45.50
81202;DHT22;71068;47.662;-2.750;2023-09-12T14:22:00;31.80;45.50
81202;DHT22;71068;47.662;-2.750;2023-09-12T14:24:27;32.00;45.00
81202;DHT22;71068;47.662;-2.750;2023-09-12T14:26:53;32.00;44.30
81202;DHT22;71068;47.662;-2.750;2023-09-12T14:29:20;32.00;44.30
81202;DHT22;71068;47.662;-2.750;2023-09-12T14:31:51;31.50;44.60
81202;DHT22;71068;47.662;-2.750;2023-09-12T14:34:23;31.10;45.10
81202;DHT22;71068;47.662;-2.750;2023-09-12T14:36:54;30.80;46.00
81202;DHT22;71068;47.662;-2.750;2023-09-12T14:39:21;30.80;46.40
81202;DHT22;71068;47.662;-2.750;2023-09-12T14:41:50;30.30;47.00
81202;DHT22;71068;47.662;-2.750;2023-09-12T14:44:25;29.90;47.70
81202;DHT22;71068;47.662;-2.750;2023-09-12T14:46:54;29.80;48.00
81202;DHT22;71068;47.662;-2.750;2023-09-12T14:49:20;29.90;48.80
81202;DHT22;71068;47.662;-2.750;2023-09-12T14:51:49;30.10;48.70
81202;DHT22;71068;47.662;-2.750;2023-09-12T14:54:17;30.20;48.50
81202;DHT22;71068;47.662;-2.750;2023-09-12T14:56:43;30.40;48.20
81202;DHT22;71068;47.662;-2.750;2023-09-12T14:59:11;30.80;47.90
81202;DHT22;71068;47.662;-2.750;2023-09-12T15:01:39;31.00;47.80
81202;DHT22;71068;47.662;-2.750;2023-09-12T15:04:06;31.00;46.70
81202;DHT22;71068;47.662;-2.750;2023-09-12T15:06:33;30.70;47.00
81202;DHT22;71068;47.662;-2.750;2023-09-12T15:08:59;30.20;47.60
81202;DHT22;71068;47.662;-2.750;2023-09-12T15:11:25;29.50;48.20
81202;DHT22;71068;47.662;-2.750;2023-09-12T15:13:51;29.10;49.30
81202;DHT22;71068;47.662;-2.750;2023-09-12T15:16:17;28.50;50.60
81202;DHT22;71068;47.662;-2.750;2023-09-12T15:18:45;27.60;54.80
81202;DHT22;71068;47.662;-2.750;2023-09-12T15:21:12;27.10;55.30
81202;DHT22;71068;47.662;-2.750;2023-09-12T15:23:37;26.70;55.50
81202;DHT22;71068;47.662;-2.750;2023-09-12T15:26:05;26.50;55.90
81202;DHT22;71068;47.662;-2.750;2023-09-12T15:28:31;26.30;57.40
81202;DHT22;71068;47.662;-2.750;2023-09-12T15:30:58;26.10;57.10
81202;DHT22;71068;47.662;-2.750;2023-09-12T15:33:28;25.90;57.70
81202;DHT22;71068;47.662;-2.750;2023-09-12T15:35:55;25.90;60.60
81202;DHT22;71068;47.662;-2.750;2023-09-12T15:38:21;25.80;59.00
81202;DHT22;71068;47.662;-2.750;2023-09-12T15:40:47;25.80;59.50
81202;DHT22;71068;47.662;-2.750;2023-09-12T15:43:13;25.90;58.40